Time;durP1;ratioP1;P1;durP2;ratioP2;P2;SDS_P1;SDS_P2;PMS_P1;PMS_P2;Temp;Humidity;BMP_temperature;BMP_pressure;BME280_temperature;BME280_humidity;BME280_pressure;Samples;Min_cycle;Max_cycle;Signal;HPM_P1;HPM_P2
2021/07/31 00:02:08;;;;;;;;;;;;;;;20.63;58.06;100266.59;5160074;27;1905;-53
2021/07/31 00:04:33;;;;;;;;;;;;;;;20.80;59.62;100263.16;5159603;27;750;-54
2021/07/31 00:06:59;;;;;;;;;;;;;;;21.11;58.65;100260.44;5159329;27;1489;-55
2021/07/31 00:09:24;;;;;;;;;;;;;;;21.11;58.53;100263.22;5159785;27;783;-54
2021/07/31 00:11:49;;;;;;;;;;;;;;;20.98;58.92;100244.75;5159798;27;1016;-54
2021/07/31 00:14:15;;;;;;;;;;;;;;;20.95;59.11;100253.69;5159667;27;752;-53
2021/07/31 00:16:40;;;;;;;;;;;;;;;21.07;57.83;100258.63;5159399;27;779;-54
2021/07/31 00:19:06;;;;;;;;;;;;;;;20.60;59.94;100250.66;5159401;27;866;-43
2021/07/31 00:21:31;;;;;;;;;;;;;;;20.79;59.37;100256.84;5159528;27;1970;-54
2021/07/31 00:23:57;;;;;;;;;;;;;;;21.10;58.45;100263.53;5159399;27;759;-54
2021/07/31 00:26:22;;;;;;;;;;;;;;;21.09;58.36;100256.38;5158993;27;961;-50
2021/07/31 00:28:48;;;;;;;;;;;;;;;20.94;58.77;100257.56;5158934;27;794;-55
2021/07/31 00:31:13;;;;;;;;;;;;;;;21.07;58.58;100255.84;5159761;27;796;-55
2021/07/31 00:33:39;;;;;;;;;;;;;;;20.80;58.31;100257.66;5159234;27;748;-53
2021/07/31 00:36:04;;;;;;;;;;;;;;;20.48;60.15;100254.81;5159355;27;747;-43
2021/07/31 00:38:29;;;;;;;;;;;;;;;20.95;59.01;100253.69;5159551;27;736;-42
2021/07/31 00:40:55;;;;;;;;;;;;;;;21.18;58.06;100244.22;5158988;27;787;-52
2021/07/31 00:43:20;;;;;;;;;;;;;;;21.20;58.22;100241.13;5158104;27;1974;-53
2021/07/31 00:45:46;;;;;;;;;;;;;;;20.90;58.91;100234.47;5159146;27;759;-51
2021/07/31 00:48:11;;;;;;;;;;;;;;;21.04;58.83;100237.94;5158620;27;851;-53
2021/07/31 00:50:37;;;;;;;;;;;;;;;20.66;58.38;100249.38;5140103;27;776;-54
2021/07/31 00:53:02;;;;;;;;;;;;;;;20.58;60.28;100247.38;5140406;27;939;-54
2021/07/31 00:55:29;;;;;;;;;;;;;;;20.91;59.37;100247.97;5140125;27;1137;-53
2021/07/31 00:57:54;;;;;;;;;;;;;;;21.02;58.84;100241.03;5158033;27;1008;-54
2021/07/31 01:00:49;;;;;;;;;;;;;;;21.14;58.62;100240.47;5149658;27;1354;-43
2021/07/31 01:03:14;;;;;;;;;;;;;;;21.06;58.79;100246.75;5158699;27;1909;-51
2021/07/31 01:05:40;;;;;;;;;;;;;;;20.92;58.52;100241.31;5159123;27;1263;-49
2021/07/31 01:08:06;;;;;;;;;;;;;;;20.53;58.17;100240.03;5158469;27;847;-42
2021/07/31 01:10:31;;;;;;;;;;;;;;;20.87;59.66;100232.34;5140005;27;783;-52
2021/07/31 01:12:57;;;;;;;;;;;;;;;21.15;58.35;100235.72;5158151;27;1024;-54
2021/07/31 01:15:22;;;;;;;;;;;;;;;20.96;58.85;100231.25;5140525;27;778;-54
2021/07/31 01:17:48;;;;;;;;;;;;;;;20.93;59.01;100231.91;5139925;27;1172;-54
2021/07/31 01:20:13;;;;;;;;;;;;;;;20.73;59.70;100227.69;5158354;27;794;-43
2021/07/31 01:22:43;;;;;;;;;;;;;;;20.91;58.53;100228.63;5139875;27;1893;-55
2021/07/31 01:25:10;;;;;;;;;;;;;;;20.42;58.31;100228.41;5158742;27;1280;-54
2021/07/31 01:27:37;;;;;;;;;;;;;;;20.55;60.50;100225.91;5158223;27;973;-54
2021/07/31 01:30:03;;;;;;;;;;;;;;;20.78;59.59;100224.00;5158441;27;771;-55
2021/07/31 01:32:29;;;;;;;;;;;;;;;20.90;59.23;100215.13;5158258;27;830;-54
2021/07/31 01:34:54;;;;;;;;;;;;;;;20.88;59.04;100217.41;5139766;27;1144;-53
2021/07/31 01:37:21;;;;;;;;;;;;;;;20.66;60.00;100221.75;5158098;27;1497;-53
2021/07/31 01:39:48;;;;;;;;;;;;;;;20.83;58.93;100208.09;5158313;27;850;-54
2021/07/31 01:42:13;;;;;;;;;;;;;;;20.52;58.30;100203.34;5158436;27;1967;-52
2021/07/31 01:44:39;;;;;;;;;;;;;;;20.63;59.98;100211.34;5139738;27;813;-44
2021/07/31 01:47:05;;;;;;;;;;;;;;;20.85;59.24;100205.81;5139867;27;1290;-56
2021/07/31 01:49:31;;;;;;;;;;;;;;;21.18;58.09;100194.44;5139502;27;1251;-54
2021/07/31 01:52:07;;;;;;;;;;;;;;;21.12;58.19;100206.78;5157899;27;834;-52
2021/07/31 01:54:33;;;;;;;;;;;;;;;20.83;59.14;100204.50;5139669;27;1246;-42
2021/07/31 01:56:58;;;;;;;;;;;;;;;21.04;58.49;100207.53;5158226;27;1001;-51
2021/07/31 01:59:44;;;;;;;;;;;;;;;20.55;58.28;100212.09;5157398;27;1392;-51
2021/07/31 02:02:11;;;;;;;;;;;;;;;20.72;59.68;100212.25;5157961;27;1968;-54
2021/07/31 02:04:39;;;;;;;;;;;;;;;20.80;59.44;100207.91;5139620;27;1383;-43
2021/07/31 02:07:26;;;;;;;;;;;;;;;21.11;58.45;100213.44;5143427;27;1215;-49
2021/07/31 02:09:53;;;;;;;;;;;;;;;20.82;59.46;100214.75;5161973;27;849;-52
2021/07/31 02:12:18;;;;;;;;;;;;;;;20.97;58.97;100205.25;5142934;27;1165;-53
2021/07/31 02:14:46;;;;;;;;;;;;;;;20.73;58.09;100199.25;5143676;27;1137;-49
2021/07/31 02:17:13;;;;;;;;;;;;;;;20.74;59.42;100203.66;5143352;27;1270;-51
2021/07/31 02:19:44;;;;;;;;;;;;;;;20.78;59.26;100194.41;5143310;27;1109;-54
2021/07/31 02:22:17;;;;;;;;;;;;;;;20.85;58.84;100202.25;5161858;27;1905;-55
2021/07/31 02:25:09;;;;;;;;;;;;;;;21.02;58.50;100204.28;5137304;27;1081;-55
2021/07/31 02:28:09;;;;;;;;;;;;;;;20.70;58.71;100203.47;5161307;27;1042;-51
2021/07/31 02:30:35;;;;;;;;;;;;;;;20.34;59.65;100202.38;5161616;27;802;-55
2021/07/31 02:33:00;;;;;;;;;;;;;;;20.53;60.03;100206.91;5161562;27;890;-55
2021/07/31 02:35:33;;;;;;;;;;;;;;;20.88;58.89;100207.16;5161443;27;779;-45
2021/07/31 02:38:19;;;;;;;;;;;;;;;20.93;58.67;100215.31;5146619;27;1482;-44
2021/07/31 02:40:44;;;;;;;;;;;;;;;20.76;59.27;100218.78;5142791;27;1117;-51
2021/07/31 02:43:11;;;;;;;;;;;;;;;20.91;58.93;100217.56;5143224;27;1913;-53
2021/07/31 02:45:37;;;;;;;;;;;;;;;20.56;58.56;100222.03;5161754;27;1471;-54
2021/07/31 02:48:04;;;;;;;;;;;;;;;20.45;60.42;100215.94;5142914;27;1350;-55
2021/07/31 02:50:29;;;;;;;;;;;;;;;20.87;59.13;100218.53;5161739;27;799;-54
2021/07/31 02:53:08;;;;;;;;;;;;;;;21.16;58.00;100218.81;5142958;27;1239;-56
2021/07/31 02:55:33;;;;;;;;;;;;;;;;;;5161317;27;740;-55
2021/07/31 02:57:59;;;;;;;;;;;;;;;20.81;59.28;100215.06;5142171;27;1392;-55
2021/07/31 03:00:25;;;;;;;;;;;;;;;20.75;59.23;100217.16;5161183;27;751;-54
2021/07/31 03:02:50;;;;;;;;;;;;;;;20.55;58.48;100217.63;5161171;27;1909;-54
2021/07/31 03:05:16;;;;;;;;;;;;;;;20.45;60.73;100215.94;5160556;27;1147;-55
2021/07/31 03:07:51;;;;;;;;;;;;;;;20.75;59.63;100216.31;5142608;27;1262;-44
2021/07/31 03:10:17;;;;;;;;;;;;;;;21.00;58.66;100223.16;5160669;27;822;-44
2021/07/31 03:12:42;;;;;;;;;;;;;;;21.08;58.29;100227.88;5160860;27;1032;-52
2021/07/31 03:15:08;;;;;;;;;;;;;;;20.94;58.72;100227.97;5160610;27;754;-50
2021/07/31 03:17:34;;;;;;;;;;;;;;;20.82;59.58;100230.53;5140991;27;1095;-47
2021/07/31 03:20:00;;;;;;;;;;;;;;;20.61;58.50;100232.97;5142553;27;1095;-46
2021/07/31 03:22:26;;;;;;;;;;;;;;;20.37;60.23;100220.28;5160291;27;1917;-47
2021/07/31 03:24:56;;;;;;;;;;;;;;;20.92;59.43;100224.72;5142368;27;1224;-47
2021/07/31 03:27:24;;;;;;;;;;;;;;;21.20;58.66;100222.59;5141375;27;1167;-49
2021/07/31 03:30:08;;;;;;;;;;;;;;;21.04;59.27;100226.88;5160378;27;590;-49
2021/07/31 03:32:39;;;;;;;;;;;;;;;21.02;59.60;100227.22;5160370;27;787;-47
2021/07/31 03:35:06;;;;;;;;;;;;;;;20.95;59.11;100224.09;5141771;27;1099;-45
2021/07/31 03:37:40;;;;;;;;;;;;;;;20.42;59.33;100228.41;5126112;27;1461;-46
2021/07/31 03:40:06;;;;;;;;;;;;;;;20.98;60.19;100230.94;5142146;27;1240;-44
2021/07/31 03:42:32;;;;;;;;;;;;;;;21.24;59.37;100231.06;5141169;27;1917;-44
2021/07/31 03:44:59;;;;;;;;;;;;;;;21.19;60.19;100229.25;5160104;27;766;-52
2021/07/31 03:47:24;;;;;;;;;;;;;;;21.07;60.73;100237.34;5142373;27;1466;-44
2021/07/31 03:49:50;;;;;;;;;;;;;;;21.07;60.73;100236.50;5148346;27;1980;-44
2021/07/31 03:52:16;;;;;;;;;;;;;;;20.94;58.86;100243.75;5171176;27;729;-49
2021/07/31 03:54:48;;;;;;;;;;;;;;;20.53;59.56;100234.53;5141670;27;1217;-54
2021/07/31 03:57:13;;;;;;;;;;;;;;;20.32;62.74;100239.72;5159234;27;941;-46
2021/07/31 03:59:45;;;;;;;;;;;;;;;20.39;63.12;100245.63;5141779;27;1083;-47
2021/07/31 04:02:11;;;;;;;;;;;;;;;20.67;61.69;100245.50;5159603;27;1984;-48
2021/07/31 04:04:37;;;;;;;;;;;;;;;20.32;63.19;100250.75;5173449;27;803;-55
2021/07/31 04:07:05;;;;;;;;;;;;;;;20.85;61.60;100252.00;5180628;27;1214;-48
2021/07/31 04:09:49;;;;;;;;;;;;;;;21.01;60.90;100249.66;5180549;27;644;-45
2021/07/31 04:12:32;;;;;;;;;;;;;;;21.13;60.60;100251.84;5166056;27;983;-47
2021/07/31 04:15:27;;;;;;;;;;;;;;;20.90;61.31;100245.50;5141304;27;1357;-52
2021/07/31 04:17:53;;;;;;;;;;;;;;;20.94;60.42;100250.09;5159468;27;751;-53
2021/07/31 04:20:19;;;;;;;;;;;;;;;20.43;60.32;100252.16;5141264;27;1117;-49
2021/07/31 04:22:44;;;;;;;;;;;;;;;20.20;61.28;100244.97;5140618;27;1974;-42
2021/07/31 04:25:11;;;;;;;;;;;;;;;20.41;62.59;100259.94;5159481;27;800;-47
2021/07/31 04:27:37;;;;;;;;;;;;;;;20.81;62.06;100262.06;5159059;27;1020;-52
2021/07/31 04:30:02;;;;;;;;;;;;;;;21.13;61.46;100257.38;5159293;27;822;-42
2021/07/31 04:32:28;;;;;;;;;;;;;;;21.15;61.67;100266.97;5159048;27;819;-53
2021/07/31 04:34:53;;;;;;;;;;;;;;;21.12;62.30;100261.25;5158939;27;910;-55
2021/07/31 04:37:19;;;;;;;;;;;;;;;21.08;62.05;100269.34;5159632;27;767;-49
2021/07/31 04:39:44;;;;;;;;;;;;;;;20.78;60.49;100269.00;5158829;27;851;-44
2021/07/31 04:42:10;;;;;;;;;;;;;;;20.53;58.95;100267.66;5158739;27;1933;-49
2021/07/31 04:44:36;;;;;;;;;;;;;;;21.00;62.55;100270.94;5141212;27;1370;-57
2021/07/31 04:47:02;;;;;;;;;;;;;;;21.33;63.44;100278.91;5170413;27;776;-51
2021/07/31 04:49:27;;;;;;;;;;;;;;;21.69;62.71;100274.38;5159095;27;718;-49
2021/07/31 04:51:52;;;;;;;;;;;;;;;21.56;62.92;100278.91;5158777;27;750;-46
2021/07/31 04:54:18;;;;;;;;;;;;;;;21.26;63.75;100277.75;5158707;27;795;-59
2021/07/31 04:56:43;;;;;;;;;;;;;;;21.35;63.49;100275.88;5158594;27;1023;-46
2021/07/31 04:59:09;;;;;;;;;;;;;;;21.07;61.12;100272.44;5159108;27;807;-53
2021/07/31 05:01:34;;;;;;;;;;;;;;;20.57;57.84;100273.38;5158345;27;1913;-42
2021/07/31 05:04:00;;;;;;;;;;;;;;;21.07;61.62;100276.03;5158483;27;782;-50
2021/07/31 05:06:25;;;;;;;;;;;;;;;21.37;63.55;100279.13;5158511;27;1030;-47
2021/07/31 05:08:51;;;;;;;;;;;;;;;21.67;64.01;100287.72;5158598;27;1049;-51
2021/07/31 05:11:21;;;;;;;;;;;;;;;21.97;63.05;100279.69;5158147;27;964;-48
2021/07/31 05:13:46;;;;;;;;;;;;;;;21.49;64.19;100282.09;5158247;27;770;-42
2021/07/31 05:16:15;;;;;;;;;;;;;;;21.42;64.58;100278.97;5158597;27;743;-50
2021/07/31 05:18:41;;;;;;;;;;;;;;;21.08;62.54;100277.66;5158590;27;767;-54
2021/07/31 05:21:06;;;;;;;;;;;;;;;20.36;58.16;100279.38;5158543;27;855;-51
2021/07/31 05:23:32;;;;;;;;;;;;;;;20.76;60.55;100287.03;5158436;27;1987;-48
2021/07/31 05:25:57;;;;;;;;;;;;;;;20.64;61.15;100271.00;5158053;27;941;-52
2021/07/31 05:28:23;;;;;;;;;;;;;;;20.56;59.74;100282.78;5157985;27;988;-55
2021/07/31 05:30:48;;;;;;;;;;;;;;;20.65;57.73;100283.66;5158407;27;854;-47
2021/07/31 05:33:14;;;;;;;;;;;;;;;20.48;56.84;100284.34;5157964;27;565;-55
2021/07/31 05:35:39;;;;;;;;;;;;;;;20.50;55.46;100291.19;5158436;27;736;-42
2021/07/31 05:38:04;;;;;;;;;;;;;;;20.62;54.18;100287.06;5158601;27;827;-54
2021/07/31 05:40:30;;;;;;;;;;;;;;;20.39;54.07;100284.28;5138810;27;838;-42
2021/07/31 05:42:55;;;;;;;;;;;;;;;20.13;55.04;100290.38;5157463;27;1906;-53
2021/07/31 05:45:21;;;;;;;;;;;;;;;20.25;54.63;100295.34;5158842;27;738;-58
2021/07/31 05:47:46;;;;;;;;;;;;;;;20.25;54.86;100294.53;5158082;27;782;-52
2021/07/31 05:50:12;;;;;;;;;;;;;;;20.23;54.80;100292.09;5158135;27;801;-55
2021/07/31 05:52:38;;;;;;;;;;;;;;;20.25;54.84;100300.88;5157825;27;794;-48
2021/07/31 05:55:04;;;;;;;;;;;;;;;20.31;54.03;100294.13;5158069;27;838;-42
2021/07/31 05:57:29;;;;;;;;;;;;;;;20.31;53.38;100290.53;5157919;27;989;-42
2021/07/31 05:59:55;;;;;;;;;;;;;;;20.42;53.89;100300.22;5158454;27;752;-46
2021/07/31 06:02:20;;;;;;;;;;;;;;;20.89;56.44;100294.47;5158018;27;1972;-47
2021/07/31 06:04:46;;;;;;;;;;;;;;;21.19;58.89;100306.66;5157741;27;933;-46
2021/07/31 06:07:11;;;;;;;;;;;;;;;;;;5157954;27;1089;-51
2021/07/31 06:09:37;;;;;;;;;;;;;;;21.17;62.82;100297.88;5157809;27;842;-46
2021/07/31 06:12:02;;;;;;;;;;;;;;;20.82;60.79;100303.19;5157698;27;1037;-44
2021/07/31 06:14:28;;;;;;;;;;;;;;;20.58;59.55;100313.66;5157983;27;799;-44
2021/07/31 06:16:54;;;;;;;;;;;;;;;21.39;62.93;100311.97;5158103;27;729;-45
2021/07/31 06:19:19;;;;;;;;;;;;;;;21.84;64.09;100301.63;5157850;27;806;-53
2021/07/31 06:21:46;;;;;;;;;;;;;;;22.02;65.30;100309.97;5158057;27;1909;-48
2021/07/31 06:24:11;;;;;;;;;;;;;;;21.66;67.81;100308.25;5157605;27;759;-57
2021/07/31 06:26:36;;;;;;;;;;;;;;;21.67;67.29;100309.84;5157323;27;953;-46
2021/07/31 06:29:02;;;;;;;;;;;;;;;21.22;62.51;100310.75;5139409;27;1155;-41
2021/07/31 06:31:27;;;;;;;;;;;;;;;20.41;57.98;100295.84;5157526;27;802;-42
2021/07/31 06:33:53;;;;;;;;;;;;;;;20.96;59.60;100305.06;5139066;27;1355;-43
2021/07/31 06:36:21;;;;;;;;;;;;;;;20.59;61.44;100295.97;5158023;27;786;-52
2021/07/31 06:38:47;;;;;;;;;;;;;;;20.68;60.94;100307.97;5157666;27;767;-44
2021/07/31 06:41:12;;;;;;;;;;;;;;;20.80;58.90;100304.63;5157609;27;981;-48
2021/07/31 06:43:38;;;;;;;;;;;;;;;20.70;57.87;100302.13;5157139;27;758;-42
2021/07/31 06:46:13;;;;;;;;;;;;;;;20.60;56.69;100308.66;5157574;27;882;-51
2021/07/31 06:48:38;;;;;;;;;;;;;;;20.76;55.22;100304.44;5158019;27;806;-42
2021/07/31 06:51:04;;;;;;;;;;;;;;;20.84;54.40;100309.19;5158055;27;830;-48
2021/07/31 06:53:29;;;;;;;;;;;;;;;20.57;54.65;100310.09;5161226;27;854;-42
2021/07/31 06:55:58;;;;;;;;;;;;;;;20.44;54.50;100311.78;5160931;27;810;-42
2021/07/31 06:58:23;;;;;;;;;;;;;;;20.56;54.69;100313.97;5161018;27;945;-46
2021/07/31 07:00:49;;;;;;;;;;;;;;;20.63;55.63;100310.81;5161305;27;767;-49
2021/07/31 07:03:14;;;;;;;;;;;;;;;20.80;56.32;100305.44;5160959;27;1897;-47
2021/07/31 07:05:40;;;;;;;;;;;;;;;20.85;57.54;100308.06;5142122;27;1391;-47
2021/07/31 07:08:05;;;;;;;;;;;;;;;20.98;57.86;100322.16;5161093;27;854;-49
2021/07/31 07:10:32;;;;;;;;;;;;;;;20.93;58.79;100308.44;5160924;27;735;-46
2021/07/31 07:12:57;;;;;;;;;;;;;;;20.46;58.53;100311.47;5160279;27;997;-42
2021/07/31 07:15:23;;;;;;;;;;;;;;;20.51;60.93;100314.13;5160775;27;766;-46
2021/07/31 07:17:48;;;;;;;;;;;;;;;21.08;59.72;100310.81;5160825;27;767;-48
2021/07/31 07:20:13;;;;;;;;;;;;;;;21.28;59.32;100315.03;5142418;27;1112;-45
2021/07/31 07:22:39;;;;;;;;;;;;;;;21.26;59.29;100330.28;5160326;27;1949;-53
2021/07/31 07:25:05;;;;;;;;;;;;;;;21.15;59.96;100322.28;5160513;27;830;-40
2021/07/31 07:27:30;;;;;;;;;;;;;;;21.19;59.81;100316.91;5160089;27;965;-44
2021/07/31 07:29:55;;;;;;;;;;;;;;;20.82;57.59;100318.97;5160620;27;787;-40
2021/07/31 07:32:21;;;;;;;;;;;;;;;20.92;59.13;100326.97;5160499;27;882;-52
2021/07/31 07:34:46;;;;;;;;;;;;;;;20.97;61.47;100314.97;5159783;27;854;-42
2021/07/31 07:37:12;;;;;;;;;;;;;;;20.94;61.24;100321.94;5161427;27;731;-41
2021/07/31 07:39:37;;;;;;;;;;;;;;;21.07;60.77;100325.78;5141968;27;755;-45
2021/07/31 07:42:04;;;;;;;;;;;;;;;20.96;61.40;100327.19;5140939;27;1909;-41
2021/07/31 07:44:29;;;;;;;;;;;;;;;21.14;60.73;100322.56;5160495;27;814;-41
2021/07/31 07:46:55;;;;;;;;;;;;;;;20.47;59.49;100318.63;5160141;27;798;-41
2021/07/31 07:49:20;;;;;;;;;;;;;;;20.20;59.37;100317.53;5160214;27;751;-41
2021/07/31 07:51:46;;;;;;;;;;;;;;;20.61;62.18;100324.13;5160255;27;819;-42
2021/07/31 07:54:11;;;;;;;;;;;;;;;21.11;61.45;100325.97;5159892;27;1000;-47
2021/07/31 07:56:36;;;;;;;;;;;;;;;21.39;60.38;100318.31;5159736;27;1016;-41
2021/07/31 07:59:03;;;;;;;;;;;;;;;21.44;60.04;100326.47;5160307;27;802;-55
2021/07/31 08:01:29;;;;;;;;;;;;;;;21.15;60.88;100329.72;5159843;27;1978;-40
2021/07/31 08:03:55;;;;;;;;;;;;;;;21.12;61.00;100330.38;5159192;27;814;-44
2021/07/31 08:06:21;;;;;;;;;;;;;;;20.71;58.87;100328.63;5159618;27;1041;-42
2021/07/31 08:08:46;;;;;;;;;;;;;;;20.79;59.80;100320.38;5159687;27;822;-40
2021/07/31 08:11:11;;;;;;;;;;;;;;;20.96;61.96;100321.66;5159377;27;1001;-56
2021/07/31 08:13:37;;;;;;;;;;;;;;;21.25;60.94;100331.41;5159379;27;810;-41
2021/07/31 08:16:03;;;;;;;;;;;;;;;21.58;59.60;100326.41;5159348;27;767;-47
2021/07/31 08:18:28;;;;;;;;;;;;;;;21.29;60.34;100318.59;5159703;27;870;-51
2021/07/31 08:20:53;;;;;;;;;;;;;;;21.17;60.62;100320.00;5159578;27;881;-49
2021/07/31 08:23:19;;;;;;;;;;;;;;;21.19;59.58;100314.16;5159223;27;1905;-40
2021/07/31 08:25:46;;;;;;;;;;;;;;;20.57;58.58;100310.09;5159211;27;661;-46
2021/07/31 08:28:12;;;;;;;;;;;;;;;20.99;60.61;100321.81;5158991;27;922;-46
2021/07/31 08:30:37;;;;;;;;;;;;;;;21.20;61.16;100327.66;5141038;27;1096;-43
2021/07/31 08:33:02;;;;;;;;;;;;;;;21.37;60.54;100324.16;5159318;27;846;-54
2021/07/31 08:35:28;;;;;;;;;;;;;;;21.09;61.11;100331.00;5159154;27;719;-52
2021/07/31 08:37:53;;;;;;;;;;;;;;;21.14;61.01;100320.63;5159561;27;799;-41
2021/07/31 08:40:19;;;;;;;;;;;;;;;21.10;60.16;100314.09;5158343;27;1137;-41
2021/07/31 08:42:44;;;;;;;;;;;;;;;20.54;58.51;100321.78;5124492;27;1969;-41
2021/07/31 08:45:11;;;;;;;;;;;;;;;20.73;60.83;100327.16;5138569;27;752;-49
2021/07/31 08:47:37;;;;;;;;;;;;;;;21.20;61.50;100321.31;5138211;27;743;-54
2021/07/31 08:50:02;;;;;;;;;;;;;;;21.52;60.44;100325.75;5138407;27;743;-49
2021/07/31 08:52:28;;;;;;;;;;;;;;;21.75;59.37;100328.44;5138179;27;748;-47
2021/07/31 08:54:53;;;;;;;;;;;;;;;21.47;60.39;100328.59;5138265;27;850;-47
2021/07/31 08:57:19;;;;;;;;;;;;;;;21.20;60.88;100330.41;5128860;27;1154;-42
2021/07/31 08:59:46;;;;;;;;;;;;;;;21.02;59.41;100332.25;5168228;27;774;-41
2021/07/31 09:02:11;;;;;;;;;;;;;;;20.46;57.26;100323.31;5158797;27;1906;-56
2021/07/31 09:04:41;;;;;;;;;;;;;;;21.18;60.13;100327.16;5158210;27;770;-40
2021/07/31 09:07:13;;;;;;;;;;;;;;;21.63;60.50;100325.44;5139950;27;1185;-41
2021/07/31 09:09:38;;;;;;;;;;;;;;;21.77;59.49;100323.41;5140462;27;1303;-49
2021/07/31 09:12:05;;;;;;;;;;;;;;;21.52;60.18;100322.19;5158075;27;960;-41
2021/07/31 09:14:31;;;;;;;;;;;;;;;21.26;60.91;100317.28;5158155;27;788;-41
2021/07/31 09:16:56;;;;;;;;;;;;;;;21.17;60.97;100324.72;5158040;27;794;-49
2021/07/31 09:19:22;;;;;;;;;;;;;;;20.76;58.57;100312.72;5158529;27;737;-41
2021/07/31 09:21:48;;;;;;;;;;;;;;;20.67;60.27;100322.84;5159019;27;1909;-50
2021/07/31 09:24:16;;;;;;;;;;;;;;;21.16;61.54;100326.66;5158639;27;759;-52
2021/07/31 09:26:51;;;;;;;;;;;;;;;21.28;61.44;100326.09;5158034;27;1031;-42
2021/07/31 09:29:24;;;;;;;;;;;;;;;21.44;60.61;100329.25;5158473;27;779;-41
2021/07/31 09:31:50;;;;;;;;;;;;;;;21.71;59.62;100330.22;5157893;27;779;-39
2021/07/31 09:34:24;;;;;;;;;;;;;;;21.40;60.52;100331.03;5158010;27;1272;-46
2021/07/31 09:36:50;;;;;;;;;;;;;;;21.25;61.01;100332.25;5158224;27;795;-40
2021/07/31 09:39:15;;;;;;;;;;;;;;;20.92;59.29;100317.88;5158077;27;818;-46
2021/07/31 09:41:41;;;;;;;;;;;;;;;20.63;58.50;100321.84;5158067;27;1968;-42
2021/07/31 09:44:09;;;;;;;;;;;;;;;20.97;62.00;100326.03;5158477;27;747;-42
2021/07/31 09:46:39;;;;;;;;;;;;;;;21.49;61.15;100320.00;5157938;27;766;-41
2021/07/31 09:49:05;;;;;;;;;;;;;;;21.65;60.12;100323.19;5158253;27;786;-51
2021/07/31 09:51:32;;;;;;;;;;;;;;;21.18;61.46;100321.63;5158450;27;806;-40
2021/07/31 09:53:58;;;;;;;;;;;;;;;21.10;61.64;100330.69;5157964;27;755;-54
2021/07/31 09:56:23;;;;;;;;;;;;;;;21.07;59.43;100314.75;5138728;27;950;-56
2021/07/31 09:58:48;;;;;;;;;;;;;;;20.50;59.42;100318.81;5139387;27;887;-55
2021/07/31 10:01:14;;;;;;;;;;;;;;;21.18;61.35;100321.63;5139489;27;755;-40
2021/07/31 10:03:39;;;;;;;;;;;;;;;21.46;61.02;100326.16;5139582;27;1979;-55
2021/07/31 10:06:07;;;;;;;;;;;;;;;21.67;60.00;100321.75;5139596;27;1113;-40
2021/07/31 10:08:34;;;;;;;;;;;;;;;21.26;61.06;100314.50;5157690;27;759;-40
2021/07/31 10:11:00;;;;;;;;;;;;;;;21.27;60.82;100302.31;5157550;27;1004;-56
2021/07/31 10:13:25;;;;;;;;;;;;;;;21.02;59.28;100306.56;5157988;27;977;-40
2021/07/31 10:15:51;;;;;;;;;;;;;;;20.50;58.02;100304.19;5139303;27;830;-40
2021/07/31 10:18:18;;;;;;;;;;;;;;;20.97;60.80;100303.91;5157861;27;815;-55
2021/07/31 10:20:44;;;;;;;;;;;;;;;21.26;61.51;100302.66;5139911;27;763;-40
2021/07/31 10:23:09;;;;;;;;;;;;;;;21.49;60.74;100301.47;5157602;27;1913;-40
2021/07/31 10:25:35;;;;;;;;;;;;;;;21.61;60.12;100302.84;5139481;27;1225;-43
2021/07/31 10:28:21;;;;;;;;;;;;;;;21.45;60.44;100300.47;5142265;27;953;-54
2021/07/31 10:30:47;;;;;;;;;;;;;;;21.10;61.38;100303.03;5161744;27;766;-44
2021/07/31 10:33:39;;;;;;;;;;;;;;;20.62;58.90;100293.41;5143066;27;1054;-51
2021/07/31 10:36:23;;;;;;;;;;;;;;;20.91;59.93;100296.91;5157284;27;1352;-40
2021/07/31 10:38:48;;;;;;;;;;;;;;;21.26;61.46;100289.63;5142868;27;819;-42
2021/07/31 10:41:13;;;;;;;;;;;;;;;21.48;60.93;100290.72;5161098;27;941;-53
2021/07/31 10:43:39;;;;;;;;;;;;;;;21.68;59.83;100294.88;5142778;27;1910;-55
2021/07/31 10:46:16;;;;;;;;;;;;;;;21.30;60.94;100292.59;5142809;27;1250;-50
2021/07/31 10:48:41;;;;;;;;;;;;;;;21.12;61.49;100289.72;5161038;27;806;-57
2021/07/31 10:51:07;;;;;;;;;;;;;;;20.91;59.36;100291.38;5142806;27;862;-46
2021/07/31 10:53:45;;;;;;;;;;;;;;;20.43;58.24;100281.72;5161281;27;841;-41
2021/07/31 10:56:10;;;;;;;;;;;;;;;21.17;60.91;100294.31;5160913;27;961;-42
2021/07/31 10:58:37;;;;;;;;;;;;;;;21.71;60.08;100288.72;5142474;27;764;-40
2021/07/31 11:01:19;;;;;;;;;;;;;;;21.72;59.83;100289.53;5161232;27;886;-42
2021/07/31 11:03:44;;;;;;;;;;;;;;;21.28;60.81;100281.00;5160776;27;1909;-44
2021/07/31 11:06:12;;;;;;;;;;;;;;;21.18;61.17;100288.47;5160932;27;1186;-42
2021/07/31 11:08:47;;;;;;;;;;;;;;;21.04;59.71;100287.69;5161021;27;831;-41
2021/07/31 11:11:15;;;;;;;;;;;;;;;20.60;58.04;100281.03;5160774;27;1020;-41
2021/07/31 11:13:40;;;;;;;;;;;;;;;20.93;61.50;100280.81;5160483;27;827;-41
2021/07/31 11:16:13;;;;;;;;;;;;;;;21.46;60.90;100279.13;5160963;27;740;-41
2021/07/31 11:18:39;;;;;;;;;;;;;;;21.83;59.41;100275.06;5161207;27;786;-41
2021/07/31 11:21:20;;;;;;;;;;;;;;;21.34;60.75;100283.31;5161070;27;823;-40
2021/07/31 11:23:45;;;;;;;;;;;;;;;;;;5160620;27;1978;-42
2021/07/31 11:26:11;;;;;;;;;;;;;;;20.93;59.83;100280.81;5159847;27;953;-47
2021/07/31 11:28:36;;;;;;;;;;;;;;;20.45;58.08;100266.44;5160495;27;750;-40
2021/07/31 11:31:14;;;;;;;;;;;;;;;21.18;60.63;100271.03;5160663;27;767;-47
2021/07/31 11:33:40;;;;;;;;;;;;;;;21.39;61.25;100271.28;5160349;27;782;-45
2021/07/31 11:36:10;;;;;;;;;;;;;;;21.64;60.07;100260.69;5160563;27;811;-40
2021/07/31 11:38:41;;;;;;;;;;;;;;;21.43;60.50;100269.53;5159439;27;783;-40
2021/07/31 11:41:10;;;;;;;;;;;;;;;21.38;60.71;100258.63;5159561;27;997;-41
2021/07/31 11:43:42;;;;;;;;;;;;;;;21.24;60.00;100258.72;5160611;27;1972;-41
2021/07/31 11:46:07;;;;;;;;;;;;;;;20.63;57.97;100261.06;5160161;27;802;-46
2021/07/31 11:48:33;;;;;;;;;;;;;;;20.85;60.30;100258.31;5141899;27;1210;-40
2021/07/31 11:51:05;;;;;;;;;;;;;;;21.34;61.05;100263.16;5160545;27;777;-44
2021/07/31 11:53:30;;;;;;;;;;;;;;;21.60;60.30;100255.00;5159687;27;743;-40
2021/07/31 11:56:12;;;;;;;;;;;;;;;21.70;59.94;100251.13;5159984;27;1016;-44
2021/07/31 11:58:37;;;;;;;;;;;;;;;21.05;61.73;100253.41;5159893;27;759;-43
2021/07/31 12:01:04;;;;;;;;;;;;;;;21.17;61.54;100245.34;5159902;27;763;-50
2021/07/31 12:03:58;;;;;;;;;;;;;;;20.80;58.77;100249.34;5159800;27;1909;-41
2021/07/31 12:06:33;;;;;;;;;;;;;;;20.70;60.41;100247.66;5141415;27;1023;-46
2021/07/31 12:09:00;;;;;;;;;;;;;;;21.28;61.23;100245.88;5160004;27;752;-41
2021/07/31 12:11:31;;;;;;;;;;;;;;;21.46;61.03;100238.47;5159555;27;1105;-43
2021/07/31 12:13:57;;;;;;;;;;;;;;;21.74;59.76;100248.50;5166578;27;1540;-42
2021/07/31 12:16:26;;;;;;;;;;;;;;;21.23;61.22;100253.50;5175926;27;801;-40
2021/07/31 12:18:52;;;;;;;;;;;;;;;21.06;61.85;100252.28;5159575;27;862;-40
2021/07/31 12:21:24;;;;;;;;;;;;;;;20.65;60.09;100245.00;5159710;27;778;-48
2021/07/31 12:23:49;;;;;;;;;;;;;;;20.22;59.61;100240.78;5137688;27;1921;-41
2021/07/31 12:26:19;;;;;;;;;;;;;;;20.82;62.06;100236.84;5140982;27;1032;-40
2021/07/31 12:28:45;;;;;;;;;;;;;;;21.47;60.89;100229.03;5140986;27;1147;-49
2021/07/31 12:31:20;;;;;;;;;;;;;;;21.65;60.21;100234.66;5159232;27;847;-40
2021/07/31 12:33:45;;;;;;;;;;;;;;;21.31;61.03;100231.41;5159124;27;831;-47
2021/07/31 12:36:17;;;;;;;;;;;;;;;21.08;61.60;100238.94;5159620;27;768;-46
2021/07/31 12:38:46;;;;;;;;;;;;;;;21.01;60.02;100242.19;5159250;27;754;-47
2021/07/31 12:41:12;;;;;;;;;;;;;;;20.50;58.22;100241.47;5158420;27;937;-45
2021/07/31 12:43:40;;;;;;;;;;;;;;;21.10;60.99;100241.41;5159169;27;1909;-40
2021/07/31 12:46:05;;;;;;;;;;;;;;;21.38;61.17;100250.31;5159039;27;539;-41
2021/07/31 12:48:31;;;;;;;;;;;;;;;21.61;60.11;100240.00;5140816;27;1203;-48
2021/07/31 12:50:57;;;;;;;;;;;;;;;21.64;59.67;100244.94;5159003;27;829;-41
2021/07/31 12:53:24;;;;;;;;;;;;;;;21.17;61.36;100253.63;5158647;27;794;-40
2021/07/31 12:55:51;;;;;;;;;;;;;;;21.17;61.13;100248.09;5159357;27;802;-41
2021/07/31 12:58:16;;;;;;;;;;;;;;;20.76;58.99;100242.81;5158297;27;968;-42